Time;durP1;ratioP1;P1;durP2;ratioP2;P2;SDS_P1;SDS_P2;PMS_P1;PMS_P2;Temp;Humidity;BMP_temperature;BMP_pressure;BME280_temperature;BME280_humidity;BME280_pressure;Samples;Min_cycle;Max_cycle;Signal;HPM_P1;HPM_P2
2023/04/16 00:02:26;;;;;;;;;20.60;20.00;;;;;9.59;49.58;98784.66;5092100;28;8873;-78
2023/04/16 00:04:56;;;;;;;;;22.60;21.40;;;;;10.13;47.76;98783.06;5056258;28;8838;-80
2023/04/16 00:07:24;;;;;;;;;17.20;17.00;;;;;10.43;46.77;98780.38;5073647;28;8876;-79
2023/04/16 00:09:53;;;;;;;;;22.40;21.00;;;;;10.66;45.88;98777.81;5091653;28;8849;-78
2023/04/16 00:12:24;;;;;;;;;23.80;19.00;;;;;10.82;45.56;98783.44;5038648;28;9684;-79
2023/04/16 00:14:53;;;;;;;;;17.00;17.00;;;;;10.91;45.44;98783.13;5056831;28;8877;-79
2023/04/16 00:17:21;;;;;;;;;22.00;21.60;;;;;11.06;44.74;98778.25;5090460;28;8849;-77
2023/04/16 00:19:51;;;;;;;;;23.60;23.20;;;;;11.22;44.43;98774.19;5072558;28;8842;-77
2023/04/16 00:22:19;;;;;;;;;19.80;19.80;;;;;11.26;44.47;98777.56;5091146;28;8850;-77
2023/04/16 00:24:49;;;;;;;;;19.20;17.80;;;;;11.33;44.44;98766.75;5056676;28;9731;-77
2023/04/16 00:27:19;;;;;;;;;19.20;18.40;;;;;11.33;44.26;98768.50;5091364;28;8841;-78
2023/04/16 00:29:50;;;;;;;;;22.80;19.80;;;;;11.40;44.29;98764.75;5056290;28;8880;-77
2023/04/16 00:32:18;;;;;;;;;22.20;21.40;;;;;11.39;44.50;98757.78;5092775;28;9597;-76
2023/04/16 00:34:49;;;;;;;;;24.20;22.20;;;;;11.45;44.00;98767.22;5093181;28;8831;-76
2023/04/16 00:37:19;;;;;;;;;23.60;21.80;;;;;11.26;44.49;98761.78;5059967;28;8852;-80
2023/04/16 00:39:48;;;;;;;;;17.20;14.60;;;;;11.35;43.98;98764.03;5086560;28;8858;-77
2023/04/16 00:42:17;;;;;;;;;20.60;18.40;;;;;11.40;44.01;98767.38;5072765;28;9672;-79
2023/04/16 00:44:46;;;;;;;;;17.40;14.80;;;;;11.41;43.84;98765.59;5090697;28;8896;-76
2023/04/16 00:47:16;;;;;;;;;23.60;22.80;;;;;11.48;43.54;98759.19;5050453;28;8866;-77
2023/04/16 00:49:45;;;;;;;;;20.40;20.20;;;;;11.44;44.19;98755.81;5048298;28;8900;-78
2023/04/16 00:52:14;;;;;;;;;19.20;18.40;;;;;11.45;43.76;98761.97;5064574;28;8860;-78
2023/04/16 00:54:43;;;;;;;;;30.40;24.00;;;;;11.46;43.67;98756.59;5068691;28;8847;-79
2023/04/16 00:57:14;;;;;;;;;28.40;24.40;;;;;11.38;44.12;98758.69;4999795;28;8891;-79
2023/04/16 00:59:43;;;;;;;;;23.00;21.40;;;;;11.33;44.32;98755.34;5034565;28;10050;-78
2023/04/16 01:02:13;;;;;;;;;22.20;22.20;;;;;11.37;43.86;98757.84;5052485;28;8986;-79
2023/04/16 01:04:43;;;;;;;;;25.60;22.80;;;;;11.38;44.22;98762.16;5047374;28;8866;-78
2023/04/16 01:07:12;;;;;;;;;20.80;20.80;;;;;11.34;44.27;98754.44;5012127;28;9673;-78
2023/04/16 01:09:41;;;;;;;;;27.40;20.00;;;;;11.39;44.18;98757.78;5066581;28;8868;-77
2023/04/16 01:12:11;;;;;;;;;24.20;20.80;;;;;11.40;43.92;98769.16;5066151;28;8863;-80
2023/04/16 01:14:40;;;;;;;;;23.00;22.00;;;;;11.42;44.05;98759.44;5019465;28;8830;-78
2023/04/16 01:17:09;;;;;;;;;28.00;26.60;;;;;11.43;44.29;98759.38;5041220;28;8898;-76
2023/04/16 01:19:38;;;;;;;;;26.60;25.00;;;;;11.42;43.98;98755.00;5067037;28;8874;-78
2023/04/16 01:22:08;;;;;;;;;26.80;26.80;;;;;11.36;44.25;98750.84;5072144;28;8969;-78
2023/04/16 01:24:39;;;;;;;;;29.00;25.00;;;;;11.17;44.83;98757.69;5075776;28;8958;-77
2023/04/16 01:27:11;;;;;;;;;24.00;22.60;;;;;11.09;45.04;98765.88;5092326;28;8877;-79
2023/04/16 01:29:40;;;;;;;;;28.00;24.60;;;;;11.10;44.99;98758.81;5110476;28;8887;-77
2023/04/16 01:32:09;;;;;;;;;32.60;28.40;;;;;11.02;45.10;98751.22;5075973;28;8835;-78
2023/04/16 01:34:41;;;;;;;;;23.80;23.60;;;;;10.90;45.50;98757.75;5087453;28;8834;-78
2023/04/16 01:37:12;;;;;;;;;26.80;25.20;;;;;10.93;45.64;98755.00;5055282;28;9619;-77
2023/04/16 01:39:42;;;;;;;;;28.20;24.60;;;;;10.92;45.87;98755.94;5011195;28;8923;-78
2023/04/16 01:42:11;;;;;;;;;28.75;27.00;;;;;10.75;46.34;98756.53;5000068;28;8892;-78
2023/04/16 01:44:40;;;;;;;;;32.50;29.50;;;;;10.48;47.00;98753.03;4974390;28;9018;-77
2023/04/16 01:47:08;;;;;;;;;28.75;28.00;;;;;10.64;46.60;98747.25;4987649;28;8878;-78
2023/04/16 01:49:38;;;;;;;;;28.00;27.50;;;;;10.70;46.24;98749.66;4988033;28;8858;-78
2023/04/16 01:52:07;;;;;;;;;30.50;29.50;;;;;10.74;46.11;98741.66;4987551;28;8996;-77
2023/04/16 01:54:39;;;;;;;;;28.60;27.20;;;;;10.78;46.12;98743.28;4987398;28;9675;-79
2023/04/16 01:57:08;;;;;;;;;28.60;27.20;;;;;10.78;46.25;98739.78;4987133;28;8846;-80
2023/04/16 01:59:37;;;;;;;;;29.75;27.50;;;;;10.79;45.98;98744.97;4979808;28;8859;-77
2023/04/16 02:02:09;;;;;;;;;32.00;31.00;;;;;10.84;46.13;98738.69;4991680;28;8894;-78
2023/04/16 02:04:40;;;;;;;;;34.50;29.00;;;;;10.77;45.93;98741.56;4990332;28;8945;-78
2023/04/16 02:07:11;;;;;;;;;33.50;30.00;;;;;10.78;46.25;98745.03;5006937;28;8993;-76
2023/04/16 02:09:41;;;;;;;;;36.50;32.50;;;;;10.44;47.49;98737.41;4989700;28;9735;-77
2023/04/16 02:12:11;;;;;;;;;26.00;24.00;;;;;10.43;47.33;98733.09;5006447;28;8913;-78
2023/04/16 02:14:40;;;;;;;;;30.40;27.80;;;;;10.47;47.41;98740.78;4977362;28;8876;-78
2023/04/16 02:17:09;;;;;;;;;31.50;29.75;;;;;10.51;47.12;98741.56;5009723;28;9059;-79
2023/04/16 02:19:41;;;;;;;;;33.40;27.00;;;;;10.56;46.77;98745.75;5025931;28;8888;-78
2023/04/16 02:22:10;;;;;;;;;34.00;30.60;;;;;10.59;46.86;98747.41;5009384;28;9023;-77
2023/04/16 02:24:41;;;;;;;;;21.75;19.50;;;;;10.66;46.92;98740.19;5011279;28;8849;-78
2023/04/16 02:27:11;;;;;;;;;35.75;29.50;;;;;10.64;46.65;98739.38;5070394;28;8853;-78
2023/04/16 02:29:41;;;;;;;;;31.20;26.20;;;;;10.66;46.51;98741.03;5070721;28;8873;-76
2023/04/16 02:32:14;;;;;;;;;31.20;29.20;;;;;10.68;46.53;98743.63;5037900;28;8871;-79
2023/04/16 02:34:46;;;;;;;;;26.60;26.20;;;;;10.68;46.55;98740.97;5070740;28;8931;-80
2023/04/16 02:37:16;;;;;;;;;34.50;30.50;;;;;10.69;46.45;98745.31;5054193;28;8865;-79
2023/04/16 02:39:48;;;;;;;;;32.50;29.00;;;;;10.69;46.43;98738.31;5054277;28;8857;-80
2023/04/16 02:42:17;;;;;;;;;32.60;31.20;;;;;10.69;46.21;98746.19;5054226;28;8845;-79
2023/04/16 02:44:46;;;;;;;;;28.40;27.00;;;;;10.70;46.03;98739.16;5088610;28;8842;-78
2023/04/16 02:47:15;;;;;;;;;28.60;28.00;;;;;10.65;45.86;98741.97;5070661;28;8850;-79
2023/04/16 02:49:44;;;;;;;;;25.60;25.40;;;;;10.65;46.02;98741.97;5020907;28;8916;-78
2023/04/16 02:52:13;;;;;;;;;26.80;24.80;;;;;10.63;45.83;98740.28;5070413;28;8876;-78
2023/04/16 02:54:43;;;;;;;;;25.80;23.40;;;;;10.63;45.84;98746.38;5088145;28;8838;-78
2023/04/16 02:57:13;;;;;;;;;23.00;20.60;;;;;10.64;45.73;98736.75;5053805;28;8842;-78
2023/04/16 02:59:43;;;;;;;;;25.40;25.20;;;;;10.60;45.64;98742.09;5070424;28;8849;-79
2023/04/16 03:02:12;;;;;;;;;17.20;17.20;;;;;10.64;44.94;98739.38;5028873;28;9036;-79
2023/04/16 03:04:42;;;;;;;;;18.60;15.80;;;;;10.66;44.09;98748.91;5045699;28;8893;-77
2023/04/16 03:07:11;;;;;;;;;17.40;14.40;;;;;10.68;43.82;98741.84;5045890;28;8989;-75
2023/04/16 03:09:40;;;;;;;;;17.60;14.40;;;;;10.70;43.85;98736.53;5029151;28;8965;-78
2023/04/16 03:12:09;;;;;;;;;15.80;15.80;;;;;10.74;43.33;98746.06;5029274;28;8979;-77
2023/04/16 03:14:40;;;;;;;;;16.40;16.40;;;;;10.79;43.45;98746.75;5029227;28;8850;-79
2023/04/16 03:17:08;;;;;;;;;15.00;15.00;;;;;10.75;42.91;98753.91;4992262;28;9024;-78
2023/04/16 03:19:38;;;;;;;;;12.20;12.00;;;;;10.76;42.54;98746.84;5065630;28;8849;-78
2023/04/16 03:22:06;;;;;;;;;9.80;9.80;;;;;10.77;41.42;98748.59;5065399;28;8958;-78
2023/04/16 03:24:36;;;;;;;;;8.40;8.40;;;;;10.85;40.70;98753.56;5049358;28;8946;-79
2023/04/16 03:27:05;;;;;;;;;8.00;7.00;;;;;10.79;39.95;98760.75;5071229;28;8873;-78
2023/04/16 03:29:36;;;;;;;;;5.60;5.60;;;;;10.72;39.49;98761.00;5060971;28;8861;-77
2023/04/16 03:32:07;;;;;;;;;5.20;5.20;;;;;10.57;38.83;98752.69;5032679;28;8919;-78
2023/04/16 03:34:37;;;;;;;;;6.60;5.60;;;;;10.83;38.71;98748.38;5048904;28;8839;-77
2023/04/16 03:37:07;;;;;;;;;7.00;7.00;;;;;10.95;38.38;98755.84;5066744;28;8854;-78
2023/04/16 03:39:37;;;;;;;;;12.00;11.40;;;;;11.11;39.52;98765.81;5066602;28;8939;-77
2023/04/16 03:42:06;;;;;;;;;12.60;12.40;;;;;11.16;40.00;98762.09;5068111;28;8858;-79
2023/04/16 03:44:36;;;;;;;;;10.00;8.00;;;;;11.22;39.66;98766.28;5050093;28;8842;-78
2023/04/16 03:47:04;;;;;;;;;9.80;9.80;;;;;11.33;39.61;98764.13;5067872;28;8862;-78
2023/04/16 03:49:35;;;;;;;;;8.40;8.20;;;;;11.42;39.34;98760.28;5066405;28;8850;-76
2023/04/16 03:52:04;;;;;;;;;8.00;8.00;;;;;11.44;39.35;98762.84;5032394;28;8955;-78
2023/04/16 03:54:33;;;;;;;;;7.40;7.20;;;;;11.50;38.73;98752.97;5049769;28;9008;-77
2023/04/16 03:57:14;;;;;;;;;10.20;7.00;;;;;11.60;38.64;98766.66;5049696;28;8889;-78
2023/04/16 03:59:43;;;;;;;;;9.60;8.00;;;;;11.61;38.35;98768.34;5066121;28;8834;-77
2023/04/16 04:02:12;;;;;;;;;9.20;8.60;;;;;11.67;38.46;98765.50;5066566;28;8866;-79
2023/04/16 04:04:44;;;;;;;;;7.60;7.60;;;;;11.56;37.55;98767.69;5066622;28;8850;-77
2023/04/16 04:07:13;;;;;;;;;11.00;9.00;;;;;11.62;37.67;98764.81;5067956;28;8850;-78
2023/04/16 04:09:43;;;;;;;;;12.20;9.80;;;;;11.69;38.33;98770.69;5055280;28;8933;-78
2023/04/16 04:12:12;;;;;;;;;16.60;12.60;;;;;11.76;38.90;98775.66;5073403;28;8986;-80
2023/04/16 04:14:43;;;;;;;;;13.20;12.00;;;;;11.84;38.62;98775.41;5059403;28;8860;-80
2023/04/16 04:17:12;;;;;;;;;8.80;8.40;;;;;11.87;38.30;98777.06;5090068;28;8862;-79
2023/04/16 04:19:41;;;;;;;;;9.80;9.80;;;;;11.92;37.98;98778.59;5073582;28;8829;-79
2023/04/16 04:22:29;;;;;;;;;13.40;12.00;;;;;12.00;37.76;98777.47;5073372;28;8858;-79
2023/04/16 04:24:58;;;;;;;;;11.00;11.00;;;;;11.99;38.31;98781.84;5073091;28;8830;-79
2023/04/16 04:27:29;;;;;;;;;16.60;15.00;;;;;12.03;39.03;98786.09;5073251;28;8854;-79
2023/04/16 04:29:58;;;;;;;;;24.00;22.40;;;;;12.02;40.16;98792.28;5028345;28;8851;-78
2023/04/16 04:32:28;;;;;;;;;29.80;29.00;;;;;12.01;40.89;98795.81;5011659;28;9002;-80
2023/04/16 04:34:57;;;;;;;;;19.60;19.60;;;;;11.98;41.08;98797.72;4995611;28;8855;-78
2023/04/16 04:37:26;;;;;;;;;24.00;20.40;;;;;11.96;40.89;98803.06;4988961;28;8872;-80
2023/04/16 04:39:56;;;;;;;;;28.40;25.60;;;;;12.00;41.33;98804.66;4988995;28;8840;-80
2023/04/16 04:42:26;;;;;;;;;28.00;27.60;;;;;11.95;41.74;98798.69;4992280;28;8901;-78
2023/04/16 04:44:56;;;;;;;;;27.80;26.80;;;;;11.94;41.80;98804.88;4975737;28;8925;-79
2023/04/16 04:47:25;;;;;;;;;41.00;39.00;;;;;11.97;42.03;98807.38;4991919;28;8925;-78
2023/04/16 04:49:54;;;;;;;;;42.25;38.00;;;;;11.98;42.20;98808.25;4991697;28;8832;-81
2023/04/16 04:52:23;;;;;;;;;26.20;25.20;;;;;12.02;41.82;98808.06;4991669;28;8952;-79
2023/04/16 04:54:52;;;;;;;;;30.50;30.00;;;;;12.05;41.99;98817.63;4992233;28;8881;-79
2023/04/16 04:57:22;;;;;;;;;48.25;42.25;;;;;12.10;41.86;98810.41;4975708;28;8855;-78
2023/04/16 04:59:55;;;;;;;;;49.75;41.75;;;;;12.08;41.97;98817.50;4992013;28;9670;-79
2023/04/16 05:02:23;;;;;;;;;51.75;42.25;;;;;12.10;42.17;98808.63;5067938;28;8883;-78
2023/04/16 05:04:53;;;;;;;;;38.50;33.50;;;;;12.12;41.53;98805.94;5034934;28;8890;-77
2023/04/16 05:07:22;;;;;;;;;33.25;29.25;;;;;12.16;41.49;98802.25;5027797;28;8863;-78
2023/04/16 05:09:51;;;;;;;;;36.75;32.25;;;;;12.15;41.42;98805.81;5027887;28;8876;-79
2023/04/16 05:12:19;;;;;;;;;37.25;33.25;;;;;12.21;41.77;98810.00;5012319;28;9529;-79
2023/04/16 05:14:50;;;;;;;;;33.00;32.50;;;;;12.30;41.21;98807.00;5032877;28;8854;-78
2023/04/16 05:17:18;;;;;;;;;27.50;26.50;;;;;12.32;41.38;98813.06;5050461;28;8996;-78
2023/04/16 05:19:48;;;;;;;;;37.25;35.75;;;;;12.42;41.14;98813.53;5037038;28;8847;-79
2023/04/16 05:22:17;;;;;;;;;45.75;36.75;;;;;12.43;41.19;98812.63;5051029;28;8859;-77
2023/04/16 05:24:46;;;;;;;;;37.50;33.75;;;;;12.52;41.15;98821.03;5067636;28;9440;-76
2023/04/16 05:27:15;;;;;;;;;41.25;37.50;;;;;12.59;40.74;98810.22;5018952;28;8839;-79
2023/04/16 05:29:44;;;;;;;;;44.50;40.50;;;;;11.68;42.77;98814.59;5050782;28;8859;-80
2023/04/16 05:32:14;;;;;;;;;33.00;33.00;;;;;11.54;42.47;98817.75;5067271;28;9015;-80
2023/04/16 05:34:43;;;;;;;;;30.00;29.25;;;;;11.34;42.44;98825.50;5067225;28;9050;-79
2023/04/16 05:37:12;;;;;;;;;30.00;27.75;;;;;11.73;41.96;98820.56;5050767;28;8859;-80
2023/04/16 05:39:41;;;;;;;;;31.00;30.25;;;;;11.96;41.91;98818.84;5089708;28;8841;-79
2023/04/16 05:42:09;;;;;;;;;34.25;34.00;;;;;12.15;41.78;98817.22;5090477;28;8861;-79
2023/04/16 05:44:38;;;;;;;;;69.25;56.75;;;;;12.33;42.69;98815.66;5006100;28;8966;-78
2023/04/16 05:47:08;;;;;;;;;58.25;46.25;;;;;12.49;42.29;98815.03;5091167;28;8866;-80
2023/04/16 05:49:38;;;;;;;;;42.50;37.25;;;;;12.53;42.39;98814.81;5076272;28;8823;-78
2023/04/16 05:52:07;;;;;;;;;45.25;39.25;;;;;12.36;42.82;98813.81;5075733;28;8936;-80
2023/04/16 05:54:36;;;;;;;;;39.50;36.25;;;;;12.48;41.96;98813.28;5093254;28;8859;-79
2023/04/16 05:57:05;;;;;;;;;40.50;37.50;;;;;12.55;42.16;98812.13;5110805;28;8909;-79
2023/04/16 05:59:34;;;;;;;;;64.25;52.00;;;;;12.70;42.08;98814.13;5107321;28;8864;-80
2023/04/16 06:02:03;;;;;;;;;83.33;64.00;;;;;12.85;42.21;98812.66;5090865;28;8855;-80
2023/04/16 06:04:32;;;;;;;;;61.50;50.50;;;;;12.96;41.63;98809.59;5072756;28;9320;-79
2023/04/16 06:07:02;;;;;;;;;42.50;38.25;;;;;13.06;41.79;98802.97;5089498;28;8874;-78
2023/04/16 06:09:31;;;;;;;;;44.50;38.50;;;;;13.13;42.01;98811.50;5072040;28;8859;-79
2023/04/16 06:12:00;;;;;;;;;49.00;39.50;;;;;13.25;42.09;98810.94;5088454;28;8860;-81
2023/04/16 06:14:29;;;;;;;;;39.00;35.50;;;;;13.22;42.17;98811.09;5077643;28;8845;-79
2023/04/16 06:16:59;;;;;;;;;40.25;36.50;;;;;13.29;41.80;98825.72;5020685;28;8898;-79
2023/04/16 06:19:28;;;;;;;;;39.00;36.50;;;;;13.40;41.44;98814.69;5071024;28;8872;-80
2023/04/16 06:21:57;;;;;;;;;49.00;42.50;;;;;13.41;40.52;98823.47;5071654;28;8919;-82
2023/04/16 06:24:27;;;;;;;;;49.25;41.75;;;;;13.31;40.76;98825.66;5055060;28;8922;-78
2023/04/16 06:26:56;;;;;;;;;51.50;44.75;;;;;13.38;40.44;98826.28;5071676;28;10043;-82
2023/04/16 06:29:25;;;;;;;;;53.75;45.25;;;;;13.50;40.51;98828.34;5054400;28;8838;-83
2023/04/16 06:32:08;;;;;;;;;35.75;35.25;;;;;13.61;39.86;98822.59;5071869;28;8914;-79
2023/04/16 06:34:38;;;;;;;;;50.00;41.50;;;;;13.73;39.36;98826.47;5083326;28;8851;-79
2023/04/16 06:37:09;;;;;;;;;47.75;42.00;;;;;13.86;39.32;98820.56;5092116;28;8847;-80
2023/04/16 06:39:40;;;;;;;;;57.00;46.75;;;;;13.96;39.68;98828.94;5110104;28;8847;-79
2023/04/16 06:42:08;;;;;;;;;52.75;40.50;;;;;14.01;39.09;98816.34;5050059;28;8848;-80
2023/04/16 06:44:37;;;;;;;;;53.25;44.00;;;;;14.16;39.72;98827.16;5049789;28;8855;-80
2023/04/16 06:47:06;;;;;;;;;41.50;36.50;;;;;14.26;39.33;98823.13;5049715;28;9010;-82
2023/04/16 06:49:35;;;;;;;;;45.25;38.75;;;;;14.41;39.23;98824.19;5017011;28;8871;-79
2023/04/16 06:52:04;;;;;;;;;36.75;35.00;;;;;14.55;38.33;98831.47;5066581;28;8861;-80
2023/04/16 06:54:34;;;;;;;;;40.75;35.25;;;;;14.65;38.01;98836.22;5007569;28;8847;-79
2023/04/16 06:57:04;;;;;;;;;46.50;40.00;;;;;14.74;39.04;98827.00;4991866;28;8904;-79
2023/04/16 06:59:33;;;;;;;;;52.50;45.25;;;;;14.77;38.69;98828.63;4979478;28;8907;-80
2023/04/16 07:02:02;;;;;;;;;61.25;50.00;;;;;14.92;38.39;98829.66;4998611;28;8997;-80
2023/04/16 07:04:31;;;;;;;;;50.00;41.25;;;;;14.96;38.20;98832.09;4993992;28;8887;-79
2023/04/16 07:07:01;;;;;;;;;46.25;40.00;;;;;15.02;37.73;98825.63;4975050;28;8880;-81
2023/04/16 07:09:30;;;;;;;;;40.25;37.00;;;;;15.10;37.56;98838.47;4990985;28;9961;-79
2023/04/16 07:11:59;;;;;;;;;36.00;32.25;;;;;15.06;37.04;98837.75;4942165;28;9012;-78
2023/04/16 07:14:29;;;;;;;;;51.75;40.25;;;;;15.12;37.29;98839.25;5044806;28;8862;-80
2023/04/16 07:16:58;;;;;;;;;48.75;40.75;;;;;15.16;37.70;98840.78;5046448;28;8988;-79
2023/04/16 07:19:31;;;;;;;;;51.75;43.75;;;;;15.09;38.07;98842.88;5046198;28;9624;-79
2023/04/16 07:22:00;;;;;;;;;37.25;34.75;;;;;15.26;36.64;98836.72;5029519;28;8874;-82
2023/04/16 07:24:29;;;;;;;;;22.40;19.60;;;;;15.17;35.06;98826.59;5013525;28;8858;-82
2023/04/16 07:26:58;;;;;;;;;22.40;20.80;;;;;15.28;34.59;98834.84;5046145;28;9620;-79
2023/04/16 07:29:27;;;;;;;;;20.20;19.60;;;;;15.44;34.15;98842.88;5013439;28;8874;-81
2023/04/16 07:31:57;;;;;;;;;17.80;15.80;;;;;15.68;33.95;98840.75;5052037;28;8832;-81
2023/04/16 07:34:27;;;;;;;;;13.00;12.40;;;;;15.41;33.86;98833.28;5108853;28;8900;-80
2023/04/16 07:36:55;;;;;;;;;11.60;10.80;;;;;15.48;33.91;98833.81;5074437;28;8856;-78
2023/04/16 07:39:24;;;;;;;;;11.20;10.80;;;;;15.47;33.98;98837.38;5090983;28;8847;-82
2023/04/16 07:41:53;;;;;;;;;14.00;14.00;;;;;15.47;34.38;98839.19;5110751;28;8957;-81
2023/04/16 07:44:22;;;;;;;;;10.40;10.40;;;;;15.52;33.93;98845.97;5078270;28;8878;-80
2023/04/16 07:46:51;;;;;;;;;14.20;13.80;;;;;15.36;34.36;98839.75;5094805;28;8897;-80
2023/04/16 07:49:22;;;;;;;;;11.40;11.40;;;;;15.71;34.15;98845.03;5095335;28;8855;-78
2023/04/16 07:51:50;;;;;;;;;10.60;10.60;;;;;15.60;34.36;98842.94;5113466;28;8878;-78
2023/04/16 07:54:20;;;;;;;;;12.80;12.00;;;;;15.71;34.31;98837.91;5070010;28;8876;-80
2023/04/16 07:56:48;;;;;;;;;11.20;11.00;;;;;15.92;34.05;98830.59;5069347;28;8860;-79
2023/04/16 07:59:17;;;;;;;;;11.80;11.00;;;;;15.49;34.20;98835.53;5052952;28;8895;-79
2023/04/16 08:01:53;;;;;;;;;30.50;25.50;;;;;15.66;34.08;98837.31;5069398;28;8848;-80
2023/04/16 08:04:24;;;;;;;;;12.60;12.40;;;;;15.97;34.38;98835.66;5052852;28;8840;-81
2023/04/16 08:06:54;;;;;;;;;13.20;11.40;;;;;15.96;34.17;98834.81;5052750;28;9825;-80
2023/04/16 08:09:27;;;;;;;;;9.00;8.20;;;;;15.80;34.28;98834.78;5053128;28;8868;-79
2023/04/16 08:11:56;;;;;;;;;6.40;6.40;;;;;15.98;33.71;98832.94;5069040;28;8851;-78
2023/04/16 08:14:26;;;;;;;;;7.00;7.00;;;;;15.88;33.83;98837.00;5052648;28;8880;-79
2023/04/16 08:16:56;;;;;;;;;5.00;5.00;;;;;15.90;33.84;98831.63;5004229;28;8976;-79
2023/04/16 08:19:26;;;;;;;;;9.40;8.20;;;;;15.95;33.98;98832.25;5052844;28;8870;-80
2023/04/16 08:21:55;;;;;;;;;10.80;7.80;;;;;15.95;33.81;98840.19;5036216;28;8836;-78
2023/04/16 08:24:25;;;;;;;;;7.00;6.80;;;;;15.69;34.03;98837.16;5054345;28;8852;-79
2023/04/16 08:26:53;;;;;;;;;10.20;7.80;;;;;15.67;34.32;98839.03;5041263;28;8853;-80
2023/04/16 08:29:28;;;;;;;;;7.20;6.60;;;;;15.85;34.55;98834.56;5057678;28;8845;-80
2023/04/16 08:31:57;;;;;;;;;10.80;6.00;;;;;15.81;34.60;98839.16;5074575;28;8942;-80
2023/04/16 08:34:28;;;;;;;;;10.80;9.60;;;;;16.00;34.71;98835.47;5092860;28;8854;-81
2023/04/16 08:36:56;;;;;;;;;7.60;6.00;;;;;16.05;34.45;98828.13;5100931;28;8952;-81
2023/04/16 08:39:25;;;;;;;;;5.00;5.00;;;;;15.98;34.28;98832.06;5095366;28;8847;-81
2023/04/16 08:41:58;;;;;;;;;5.80;5.60;;;;;16.08;34.17;98835.06;5053110;28;8860;-82
2023/04/16 08:44:31;;;;;;;;;6.80;6.80;;;;;15.99;34.66;98839.09;5053021;28;8844;-78
2023/04/16 08:47:01;;;;;;;;;7.20;6.40;;;;;16.26;34.19;98838.50;5066289;28;8898;-81
2023/04/16 08:49:36;;;;;;;;;9.20;9.20;;;;;16.27;34.48;98826.97;5072194;28;8848;-79
2023/04/16 08:52:07;;;;;;;;;7.60;7.60;;;;;16.32;34.45;98844.34;5037253;28;8863;-80
2023/04/16 08:54:43;;;;;;;;;7.60;7.00;;;;;16.02;34.71;98837.13;5068369;28;8864;-81
2023/04/16 08:57:15;;;;;;;;;6.00;6.00;;;;;15.89;34.98;98836.09;5052462;28;9003;-80
2023/04/16 08:59:46;;;;;;;;;4.40;4.40;;;;;15.96;34.89;98837.47;5069202;28;9010;-81
2023/04/16 09:02:15;;;;;;;;;9.20;7.60;;;;;16.23;35.17;98831.59;5035347;28;8844;-80
2023/04/16 09:04:48;;;;;;;;;8.00;7.80;;;;;16.40;34.67;98825.34;5031725;28;8970;-79
2023/04/16 09:07:19;;;;;;;;;3.80;3.80;;;;;16.29;34.61;98831.22;5048244;28;8878;-82
2023/04/16 09:09:49;;;;;;;;;5.60;4.40;;;;;16.41;34.18;98835.84;5031399;28;8869;-81
2023/04/16 09:12:19;;;;;;;;;5.40;5.00;;;;;16.17;34.34;98831.91;5050305;28;8846;-80
2023/04/16 09:14:50;;;;;;;;;6.40;6.40;;;;;16.18;34.19;98837.13;5068354;28;8923;-80
2023/04/16 09:17:19;;;;;;;;;5.40;4.60;;;;;16.14;34.43;98824.13;5068270;28;9604;-80
2023/04/16 09:19:50;;;;;;;;;5.60;5.00;;;;;16.33;33.86;98827.47;5074130;28;8933;-81
2023/04/16 09:22:19;;;;;;;;;5.00;4.00;;;;;16.21;34.53;98820.22;5091564;28;8956;-82
2023/04/16 09:24:48;;;;;;;;;6.00;6.00;;;;;16.37;34.28;98820.19;5075142;28;8861;-79
2023/04/16 09:27:17;;;;;;;;;4.20;3.40;;;;;16.24;34.45;98825.31;5073167;28;9633;-80
2023/04/16 09:29:46;;;;;;;;;4.80;4.80;;;;;16.55;34.68;98810.34;5073337;28;8838;-80
2023/04/16 09:32:15;;;;;;;;;5.00;4.00;;;;;16.40;34.24;98828.00;5073155;28;8938;-79
2023/04/16 09:34:57;;;;;;;;;4.60;4.20;;;;;16.44;34.14;98824.25;5055852;28;8857;-80
2023/04/16 09:37:28;;;;;;;;;5.60;5.20;;;;;16.61;34.71;98826.78;5072890;28;8837;-80
2023/04/16 09:39:59;;;;;;;;;5.00;5.00;;;;;16.82;34.43;98823.00;5090808;28;9731;-83
2023/04/16 09:42:29;;;;;;;;;6.40;4.80;;;;;16.79;34.52;98814.22;5056354;28;8841;-80
2023/04/16 09:45:00;;;;;;;;;5.00;5.00;;;;;16.91;34.22;98823.31;5055800;28;8888;-80
2023/04/16 09:47:40;;;;;;;;;4.00;4.00;;;;;16.94;33.98;98815.13;5071937;28;8876;-80
2023/04/16 09:50:17;;;;;;;;;4.40;4.00;;;;;16.96;33.40;98815.91;5055157;28;8830;-80
2023/04/16 09:52:49;;;;;;;;;4.00;3.80;;;;;16.83;33.88;98814.91;5072267;28;8853;-80
2023/04/16 09:55:23;;;;;;;;;5.00;5.00;;;;;16.82;33.29;98812.38;5072507;28;9611;-80
2023/04/16 09:57:59;;;;;;;;;4.00;4.00;;;;;17.18;33.26;98825.25;5071999;28;8861;-79
2023/04/16 10:00:30;;;;;;;;;2.00;2.00;;;;;17.14;32.73;98811.31;5083989;28;8983;-81
2023/04/16 10:03:06;;;;;;;;;4.00;4.00;;;;;17.00;33.06;98811.25;5092293;28;8855;-80
2023/04/16 10:05:37;;;;;;;;;3.80;3.80;;;;;16.93;32.96;98817.91;5029980;28;9596;-80
2023/04/16 10:08:12;;;;;;;;;3.40;3.40;;;;;17.22;32.62;98815.31;5031072;28;8979;-80
2023/04/16 10:10:42;;;;;;;;;3.80;3.00;;;;;17.20;32.61;98804.78;5040314;28;8852;-80
2023/04/16 10:13:11;;;;;;;;;7.60;7.40;;;;;17.44;31.88;98809.56;5007283;28;8887;-81
2023/04/16 10:15:41;;;;;;;;;7.80;7.80;;;;;17.15;32.03;98802.38;4990936;28;8875;-82
2023/04/16 10:18:10;;;;;;;;;6.20;5.20;;;;;17.53;32.07;98809.00;5007219;28;9598;-80
2023/04/16 10:20:40;;;;;;;;;3.00;3.00;;;;;17.73;31.79;98805.97;4968588;28;8878;-81
2023/04/16 10:23:10;;;;;;;;;4.00;4.00;;;;;17.68;31.71;98809.84;4968411;28;8916;-81
2023/04/16 10:25:39;;;;;;;;;2.40;2.40;;;;;17.63;31.40;98799.53;4952429;28;8870;-79
2023/04/16 10:28:09;;;;;;;;;3.60;3.60;;;;;17.77;31.55;98796.84;4952336;28;8855;-83
2023/04/16 10:30:41;;;;;;;;;4.00;3.60;;;;;18.04;31.29;98795.22;4936556;28;8981;-78
2023/04/16 10:33:10;;;;;;;;;4.60;4.00;;;;;17.86;31.45;98802.56;4956506;28;9685;-79
2023/04/16 10:35:41;;;;;;;;;3.60;3.60;;;;;18.23;31.19;98786.91;4950286;28;8894;-80
2023/04/16 10:38:22;;;;;;;;;3.40;3.40;;;;;18.14;30.12;98786.56;4988923;28;8895;-81
2023/04/16 10:40:59;;;;;;;;;4.40;4.40;;;;;18.46;31.05;98783.63;4973223;28;8879;-79
2023/04/16 10:43:28;;;;;;;;;3.20;3.20;;;;;18.55;30.27;98784.81;4994973;28;8878;-82
2023/04/16 10:45:57;;;;;;;;;5.20;3.40;;;;;18.81;30.63;98777.78;5030529;28;8838;-81
2023/04/16 10:48:26;;;;;;;;;5.80;5.00;;;;;18.81;30.07;98779.59;5013894;28;8842;-80
2023/04/16 10:51:24;;;;;;;;;4.00;3.80;;;;;19.03;30.10;98776.34;5051411;28;8913;-80
2023/04/16 10:53:55;;;;;;;;;4.00;3.00;;;;;18.88;30.24;98781.72;5050236;28;9492;-80
2023/04/16 10:56:25;;;;;;;;;4.20;3.00;;;;;19.19;29.98;98776.13;5049792;28;8824;-81
2023/04/16 10:58:55;;;;;;;;;5.00;5.00;;;;;19.29;29.28;98774.50;5050425;28;9667;-80
2023/04/16 11:01:33;;;;;;;;;5.80;4.80;;;;;19.31;29.14;98778.78;5049726;28;8852;-82
2023/04/16 11:04:39;;;;;;;;;24.20;23.00;;;;;19.84;28.27;98773.31;5032960;28;8990;-81
2023/04/16 11:07:16;;;;;;;;;8.60;8.00;;;;;19.95;27.53;98766.34;5072128;28;8828;-82
2023/04/16 11:09:56;;;;;;;;;5.80;5.00;;;;;20.13;27.20;98766.84;5071460;28;8852;-79
2023/04/16 11:12:27;;;;;;;;;6.20;6.00;;;;;19.96;28.26;98771.56;5036525;28;8880;-80
2023/04/16 11:15:00;;;;;;;;;5.20;4.60;;;;;20.10;28.57;98763.44;5037352;28;8865;-79
2023/04/16 11:17:31;;;;;;;;;5.00;5.00;;;;;20.12;28.62;98765.13;5077781;28;8947;-79
2023/04/16 11:20:01;;;;;;;;;4.40;4.40;;;;;20.17;28.30;98763.81;5066820;28;8866;-81
2023/04/16 11:22:34;;;;;;;;;4.20;4.20;;;;;20.07;28.08;98760.97;5016366;28;8860;-80
2023/04/16 11:25:03;;;;;;;;;8.80;8.80;;;;;19.93;28.08;98755.78;5016684;28;9043;-80
2023/04/16 11:27:33;;;;;;;;;5.80;5.00;;;;;19.93;28.39;98753.13;4936364;28;8848;-82
2023/04/16 11:30:03;;;;;;;;;5.60;5.60;;;;;19.95;28.33;98751.19;4974644;28;8936;-82
2023/04/16 11:32:34;;;;;;;;;6.00;5.00;;;;;19.87;28.38;98754.41;4974652;28;8935;-80
2023/04/16 11:35:05;;;;;;;;;5.80;5.00;;;;;20.04;28.02;98747.00;4974608;28;8966;-81
2023/04/16 11:37:38;;;;;;;;;5.80;5.00;;;;;20.05;28.54;98748.72;4957903;28;8903;-81
2023/04/16 11:40:08;;;;;;;;;2.80;2.80;;;;;20.02;28.21;98739.13;4974855;28;8888;-80
2023/04/16 11:42:39;;;;;;;;;4.40;4.40;;;;;20.22;27.54;98737.66;4957838;28;8865;-78
2023/04/16 11:45:10;;;;;;;;;4.20;4.20;;;;;19.97;28.05;98737.75;4974145;28;8869;-84
2023/04/16 11:47:51;;;;;;;;;14.80;14.40;;;;;20.14;27.98;98733.84;4941778;28;8918;-79